Clearview, Texas
Current Conditions -  °F | °C
As of 3:35 PM on Friday 19 Dec 2014 (Local Time) from KGYB Reporting Station
Overcast Overcast  
Wind Chill: 12°   Ceiling: 1200
Heat Index: 12°   Visibility: 10mi
Dew Point: 10°   Wind: 9mph
Humidity: 84%   Direction: 350°N
Pressure: 30.11"   Gusts: 16mph
Location:  30.1644°N, 97.2747°W
Report Text: KGYB 192135Z AUTO 35008G14KT 10SM OVC012 12/10 A3011 RMK AO2 T01240097
Loading
Personal Weather Stations






























Interactive Weather Map New forecast layout! Learn more

10-Day Weather Forecast

Advertisements
Track Severe Weather on mobile